sensor_id;sensor_type;location;lat;lon;timestamp;P1;durP1;ratioP1;P2;durP2;ratioP2
14603;SDS011;7388;51.078;13.740;2023-02-28T00:00:18;5.60;;;4.55;;
14603;SDS011;7388;51.078;13.740;2023-02-28T00:02:44;5.70;;;4.53;;
14603;SDS011;7388;51.078;13.740;2023-02-28T00:05:11;5.32;;;4.45;;
14603;SDS011;7388;51.078;13.740;2023-02-28T00:07:39;5.47;;;3.75;;
14603;SDS011;7388;51.078;13.740;2023-02-28T00:10:06;7.35;;;4.97;;
14603;SDS011;7388;51.078;13.740;2023-02-28T00:12:34;6.32;;;5.47;;
14603;SDS011;7388;51.078;13.740;2023-02-28T00:15:00;5.15;;;4.28;;
14603;SDS011;7388;51.078;13.740;2023-02-28T00:17:27;9.48;;;4.00;;
14603;SDS011;7388;51.078;13.740;2023-02-28T00:19:52;4.90;;;3.87;;
14603;SDS011;7388;51.078;13.740;2023-02-28T00:22:18;5.47;;;4.10;;
14603;SDS011;7388;51.078;13.740;2023-02-28T00:24:45;6.13;;;5.10;;
14603;SDS011;7388;51.078;13.740;2023-02-28T00:27:12;5.22;;;4.45;;
14603;SDS011;7388;51.078;13.740;2023-02-28T00:29:41;6.95;;;4.25;;
14603;SDS011;7388;51.078;13.740;2023-02-28T00:32:07;7.43;;;3.90;;
14603;SDS011;7388;51.078;13.740;2023-02-28T00:34:33;5.17;;;4.10;;
14603;SDS011;7388;51.078;13.740;2023-02-28T00:37:06;8.35;;;4.50;;
14603;SDS011;7388;51.078;13.740;2023-02-28T00:39:34;7.45;;;4.43;;
14603;SDS011;7388;51.078;13.740;2023-02-28T00:42:01;8.23;;;4.90;;
14603;SDS011;7388;51.078;13.740;2023-02-28T00:44:27;7.45;;;4.68;;
14603;SDS011;7388;51.078;13.740;2023-02-28T00:46:53;8.07;;;4.30;;
14603;SDS011;7388;51.078;13.740;2023-02-28T00:49:20;8.75;;;4.50;;
14603;SDS011;7388;51.078;13.740;2023-02-28T00:51:46;6.70;;;5.40;;
14603;SDS011;7388;51.078;13.740;2023-02-28T00:54:12;8.80;;;5.90;;
14603;SDS011;7388;51.078;13.740;2023-02-28T00:56:38;5.22;;;4.05;;
14603;SDS011;7388;51.078;13.740;2023-02-28T00:59:04;6.03;;;3.83;;
14603;SDS011;7388;51.078;13.740;2023-02-28T01:01:29;8.10;;;5.97;;
14603;SDS011;7388;51.078;13.740;2023-02-28T01:03:55;6.60;;;3.95;;
14603;SDS011;7388;51.078;13.740;2023-02-28T01:06:21;6.27;;;4.80;;
14603;SDS011;7388;51.078;13.740;2023-02-28T01:08:47;8.00;;;4.97;;
14603;SDS011;7388;51.078;13.740;2023-02-28T01:11:14;7.00;;;4.47;;
14603;SDS011;7388;51.078;13.740;2023-02-28T01:13:41;5.72;;;4.40;;
14603;SDS011;7388;51.078;13.740;2023-02-28T01:16:07;8.05;;;5.13;;
14603;SDS011;7388;51.078;13.740;2023-02-28T01:18:33;10.82;;;4.60;;
14603;SDS011;7388;51.078;13.740;2023-02-28T01:21:03;5.27;;;4.27;;
14603;SDS011;7388;51.078;13.740;2023-02-28T01:23:30;6.90;;;4.60;;
14603;SDS011;7388;51.078;13.740;2023-02-28T01:25:55;6.40;;;4.30;;
14603;SDS011;7388;51.078;13.740;2023-02-28T01:28:21;5.60;;;4.23;;
14603;SDS011;7388;51.078;13.740;2023-02-28T01:30:47;5.80;;;4.77;;
14603;SDS011;7388;51.078;13.740;2023-02-28T01:33:14;7.80;;;4.63;;
14603;SDS011;7388;51.078;13.740;2023-02-28T01:35:39;6.23;;;4.27;;
14603;SDS011;7388;51.078;13.740;2023-02-28T01:38:05;6.90;;;5.03;;
14603;SDS011;7388;51.078;13.740;2023-02-28T01:40:31;11.03;;;5.00;;
14603;SDS011;7388;51.078;13.740;2023-02-28T01:42:57;5.80;;;4.27;;
14603;SDS011;7388;51.078;13.740;2023-02-28T01:47:57;11.93;;;5.43;;
14603;SDS011;7388;51.078;13.740;2023-02-28T01:50:28;5.72;;;4.78;;
14603;SDS011;7388;51.078;13.740;2023-02-28T01:52:58;6.30;;;4.95;;
14603;SDS011;7388;51.078;13.740;2023-02-28T01:55:26;5.95;;;4.80;;
14603;SDS011;7388;51.078;13.740;2023-02-28T01:57:58;7.88;;;4.57;;
14603;SDS011;7388;51.078;13.740;2023-02-28T02:00:27;8.13;;;4.93;;
14603;SDS011;7388;51.078;13.740;2023-02-28T02:02:58;8.70;;;4.82;;
14603;SDS011;7388;51.078;13.740;2023-02-28T02:05:30;5.13;;;4.03;;
14603;SDS011;7388;51.078;13.740;2023-02-28T02:07:58;8.30;;;4.85;;
14603;SDS011;7388;51.078;13.740;2023-02-28T02:18:37;6.07;;;4.55;;
14603;SDS011;7388;51.078;13.740;2023-02-28T02:38:20;6.75;;;4.75;;
14603;SDS011;7388;51.078;13.740;2023-02-28T02:41:14;9.18;;;5.32;;
14603;SDS011;7388;51.078;13.740;2023-02-28T02:43:53;10.90;;;6.15;;
14603;SDS011;7388;51.078;13.740;2023-02-28T02:49:24;9.90;;;5.30;;
14603;SDS011;7388;51.078;13.740;2023-02-28T02:51:55;8.15;;;5.15;;
14603;SDS011;7388;51.078;13.740;2023-02-28T02:54:27;6.15;;;5.03;;
14603;SDS011;7388;51.078;13.740;2023-02-28T02:56:56;7.10;;;4.82;;
14603;SDS011;7388;51.078;13.740;2023-02-28T02:59:24;8.68;;;5.13;;
14603;SDS011;7388;51.078;13.740;2023-02-28T03:01:54;10.25;;;5.93;;
14603;SDS011;7388;51.078;13.740;2023-02-28T03:04:22;13.25;;;5.00;;
14603;SDS011;7388;51.078;13.740;2023-02-28T03:06:52;8.48;;;4.97;;
14603;SDS011;7388;51.078;13.740;2023-02-28T03:09:21;6.75;;;4.93;;
14603;SDS011;7388;51.078;13.740;2023-02-28T03:11:47;6.15;;;4.60;;
14603;SDS011;7388;51.078;13.740;2023-02-28T03:17:28;8.25;;;5.45;;
14603;SDS011;7388;51.078;13.740;2023-02-28T03:20:23;7.78;;;5.72;;
14603;SDS011;7388;51.078;13.740;2023-02-28T03:33:54;11.05;;;7.55;;
14603;SDS011;7388;51.078;13.740;2023-02-28T03:36:37;10.32;;;5.20;;
14603;SDS011;7388;51.078;13.740;2023-02-28T03:39:13;9.52;;;6.35;;
14603;SDS011;7388;51.078;13.740;2023-02-28T03:41:51;7.60;;;5.30;;
14603;SDS011;7388;51.078;13.740;2023-02-28T03:45:15;6.60;;;4.82;;
14603;SDS011;7388;51.078;13.740;2023-02-28T03:47:27;9.77;;;5.70;;
14603;SDS011;7388;51.078;13.740;2023-02-28T03:49:56;7.05;;;4.88;;
14603;SDS011;7388;51.078;13.740;2023-02-28T03:52:48;12.70;;;5.28;;
14603;SDS011;7388;51.078;13.740;2023-02-28T03:55:28;5.50;;;4.40;;
14603;SDS011;7388;51.078;13.740;2023-02-28T04:00:52;8.57;;;7.72;;
14603;SDS011;7388;51.078;13.740;2023-02-28T04:03:24;8.85;;;5.30;;
14603;SDS011;7388;51.078;13.740;2023-02-28T04:05:53;11.47;;;5.87;;
14603;SDS011;7388;51.078;13.740;2023-02-28T04:08:21;7.32;;;5.25;;
14603;SDS011;7388;51.078;13.740;2023-02-28T04:10:54;8.35;;;5.10;;
14603;SDS011;7388;51.078;13.740;2023-02-28T04:13:36;6.80;;;5.13;;
14603;SDS011;7388;51.078;13.740;2023-02-28T04:16:05;6.63;;;5.70;;
14603;SDS011;7388;51.078;13.740;2023-02-28T04:18:37;7.53;;;5.88;;
14603;SDS011;7388;51.078;13.740;2023-02-28T04:21:08;8.05;;;6.00;;
14603;SDS011;7388;51.078;13.740;2023-02-28T04:23:34;8.90;;;6.35;;
14603;SDS011;7388;51.078;13.740;2023-02-28T04:26:00;8.53;;;5.27;;
14603;SDS011;7388;51.078;13.740;2023-02-28T04:28:26;9.60;;;5.73;;
14603;SDS011;7388;51.078;13.740;2023-02-28T04:30:58;9.60;;;5.27;;
14603;SDS011;7388;51.078;13.740;2023-02-28T04:33:26;7.18;;;6.03;;
14603;SDS011;7388;51.078;13.740;2023-02-28T04:35:59;9.10;;;6.43;;
14603;SDS011;7388;51.078;13.740;2023-02-28T04:38:27;7.20;;;5.28;;
14603;SDS011;7388;51.078;13.740;2023-02-28T04:40:56;11.63;;;6.47;;
14603;SDS011;7388;51.078;13.740;2023-02-28T04:43:22;7.25;;;5.40;;
14603;SDS011;7388;51.078;13.740;2023-02-28T04:45:48;13.33;;;7.23;;
14603;SDS011;7388;51.078;13.740;2023-02-28T04:48:14;8.00;;;5.60;;
14603;SDS011;7388;51.078;13.740;2023-02-28T04:50:39;8.50;;;6.60;;
14603;SDS011;7388;51.078;13.740;2023-02-28T04:53:05;10.43;;;6.17;;
14603;SDS011;7388;51.078;13.740;2023-02-28T04:55:31;10.20;;;7.13;;
14603;SDS011;7388;51.078;13.740;2023-02-28T04:57:57;9.17;;;7.13;;
14603;SDS011;7388;51.078;13.740;2023-02-28T05:00:22;10.60;;;7.60;;
14603;SDS011;7388;51.078;13.740;2023-02-28T05:02:48;10.00;;;7.18;;
14603;SDS011;7388;51.078;13.740;2023-02-28T05:05:14;13.97;;;6.73;;
14603;SDS011;7388;51.078;13.740;2023-02-28T05:07:43;11.40;;;8.13;;
14603;SDS011;7388;51.078;13.740;2023-02-28T05:10:09;9.80;;;6.75;;
14603;SDS011;7388;51.078;13.740;2023-02-28T05:12:36;10.82;;;8.10;;
14603;SDS011;7388;51.078;13.740;2023-02-28T05:15:02;8.60;;;6.63;;
14603;SDS011;7388;51.078;13.740;2023-02-28T05:17:29;13.25;;;7.90;;
14603;SDS011;7388;51.078;13.740;2023-02-28T05:19:55;14.83;;;8.00;;
14603;SDS011;7388;51.078;13.740;2023-02-28T05:22:21;10.43;;;8.23;;
14603;SDS011;7388;51.078;13.740;2023-02-28T05:24:47;13.20;;;8.53;;
14603;SDS011;7388;51.078;13.740;2023-02-28T05:27:13;11.87;;;8.27;;
14603;SDS011;7388;51.078;13.740;2023-02-28T05:29:38;12.07;;;8.43;;
14603;SDS011;7388;51.078;13.740;2023-02-28T05:32:10;9.52;;;8.45;;
14603;SDS011;7388;51.078;13.740;2023-02-28T05:34:37;12.57;;;7.20;;
14603;SDS011;7388;51.078;13.740;2023-02-28T05:37:04;10.73;;;8.25;;
14603;SDS011;7388;51.078;13.740;2023-02-28T05:39:30;14.65;;;9.48;;
14603;SDS011;7388;51.078;13.740;2023-02-28T05:41:56;10.53;;;7.50;;
14603;SDS011;7388;51.078;13.740;2023-02-28T05:44:22;13.00;;;8.17;;
14603;SDS011;7388;51.078;13.740;2023-02-28T05:46:48;16.90;;;9.37;;
14603;SDS011;7388;51.078;13.740;2023-02-28T05:49:13;16.87;;;8.90;;
14603;SDS011;7388;51.078;13.740;2023-02-28T05:51:39;11.60;;;8.53;;
14603;SDS011;7388;51.078;13.740;2023-02-28T05:54:05;13.17;;;8.83;;
14603;SDS011;7388;51.078;13.740;2023-02-28T05:56:31;13.15;;;7.72;;
14603;SDS011;7388;51.078;13.740;2023-02-28T05:58:59;14.50;;;8.60;;
14603;SDS011;7388;51.078;13.740;2023-02-28T06:01:35;10.20;;;7.37;;
14603;SDS011;7388;51.078;13.740;2023-02-28T06:04:05;12.98;;;8.13;;
14603;SDS011;7388;51.078;13.740;2023-02-28T06:06:32;15.98;;;10.25;;
14603;SDS011;7388;51.078;13.740;2023-02-28T06:09:02;13.30;;;9.65;;
14603;SDS011;7388;51.078;13.740;2023-02-28T06:11:29;8.88;;;7.97;;
14603;SDS011;7388;51.078;13.740;2023-02-28T06:13:55;13.23;;;9.07;;
14603;SDS011;7388;51.078;13.740;2023-02-28T06:16:23;11.20;;;8.55;;
14603;SDS011;7388;51.078;13.740;2023-02-28T06:18:49;18.25;;;8.32;;
14603;SDS011;7388;51.078;13.740;2023-02-28T06:21:15;17.17;;;8.03;;
14603;SDS011;7388;51.078;13.740;2023-02-28T06:23:40;12.53;;;8.73;;
14603;SDS011;7388;51.078;13.740;2023-02-28T06:26:06;16.93;;;8.57;;
14603;SDS011;7388;51.078;13.740;2023-02-28T06:28:32;19.33;;;8.97;;
14603;SDS011;7388;51.078;13.740;2023-02-28T06:30:58;11.37;;;8.63;;
14603;SDS011;7388;51.078;13.740;2023-02-28T06:33:23;14.53;;;10.43;;
14603;SDS011;7388;51.078;13.740;2023-02-28T06:35:50;14.52;;;8.98;;
14603;SDS011;7388;51.078;13.740;2023-02-28T06:38:16;17.38;;;9.65;;
14603;SDS011;7388;51.078;13.740;2023-02-28T06:40:43;11.88;;;8.80;;
14603;SDS011;7388;51.078;13.740;2023-02-28T06:43:09;14.60;;;8.52;;
14603;SDS011;7388;51.078;13.740;2023-02-28T06:45:42;13.38;;;9.27;;
14603;SDS011;7388;51.078;13.740;2023-02-28T06:48:08;19.63;;;9.73;;
14603;SDS011;7388;51.078;13.740;2023-02-28T06:50:35;11.95;;;8.48;;
14603;SDS011;7388;51.078;13.740;2023-02-28T06:53:02;27.00;;;9.20;;
14603;SDS011;7388;51.078;13.740;2023-02-28T06:55:27;10.83;;;8.10;;
14603;SDS011;7388;51.078;13.740;2023-02-28T06:57:53;13.27;;;8.47;;
14603;SDS011;7388;51.078;13.740;2023-02-28T07:00:20;13.90;;;8.48;;
14603;SDS011;7388;51.078;13.740;2023-02-28T07:02:46;12.48;;;9.88;;
14603;SDS011;7388;51.078;13.740;2023-02-28T07:05:12;12.50;;;8.30;;
14603;SDS011;7388;51.078;13.740;2023-02-28T07:07:38;15.73;;;9.75;;
14603;SDS011;7388;51.078;13.740;2023-02-28T07:10:09;43.67;;;11.55;;
14603;SDS011;7388;51.078;13.740;2023-02-28T07:12:36;13.57;;;9.40;;
14603;SDS011;7388;51.078;13.740;2023-02-28T07:15:02;16.33;;;11.57;;
14603;SDS011;7388;51.078;13.740;2023-02-28T07:17:29;15.38;;;11.25;;
14603;SDS011;7388;51.078;13.740;2023-02-28T07:19:55;23.23;;;11.57;;
14603;SDS011;7388;51.078;13.740;2023-02-28T07:22:21;19.77;;;10.60;;
14603;SDS011;7388;51.078;13.740;2023-02-28T07:24:46;25.63;;;11.17;;
14603;SDS011;7388;51.078;13.740;2023-02-28T07:27:13;14.07;;;11.93;;
14603;SDS011;7388;51.078;13.740;2023-02-28T07:29:48;14.93;;;10.57;;
14603;SDS011;7388;51.078;13.740;2023-02-28T07:32:14;13.93;;;10.43;;
14603;SDS011;7388;51.078;13.740;2023-02-28T07:34:40;15.80;;;9.30;;
14603;SDS011;7388;51.078;13.740;2023-02-28T07:37:06;15.30;;;10.50;;
14603;SDS011;7388;51.078;13.740;2023-02-28T07:39:32;17.63;;;9.80;;
14603;SDS011;7388;51.078;13.740;2023-02-28T07:41:57;15.27;;;10.83;;
14603;SDS011;7388;51.078;13.740;2023-02-28T07:44:25;21.33;;;14.15;;
14603;SDS011;7388;51.078;13.740;2023-02-28T07:46:51;14.95;;;11.13;;
14603;SDS011;7388;51.078;13.740;2023-02-28T07:49:18;13.70;;;10.00;;
14603;SDS011;7388;51.078;13.740;2023-02-28T07:51:43;15.60;;;11.35;;
14603;SDS011;7388;51.078;13.740;2023-02-28T07:54:09;15.37;;;10.67;;
14603;SDS011;7388;51.078;13.740;2023-02-28T07:56:35;15.57;;;10.87;;
14603;SDS011;7388;51.078;13.740;2023-02-28T07:59:00;22.30;;;12.10;;
14603;SDS011;7388;51.078;13.740;2023-02-28T08:01:27;19.52;;;10.95;;
14603;SDS011;7388;51.078;13.740;2023-02-28T08:03:53;20.23;;;11.87;;
14603;SDS011;7388;51.078;13.740;2023-02-28T08:06:21;17.73;;;11.80;;
14603;SDS011;7388;51.078;13.740;2023-02-28T08:08:48;22.80;;;12.30;;
14603;SDS011;7388;51.078;13.740;2023-02-28T08:11:14;26.33;;;12.18;;
14603;SDS011;7388;51.078;13.740;2023-02-28T08:13:41;16.23;;;10.50;;
14603;SDS011;7388;51.078;13.740;2023-02-28T08:16:09;20.73;;;12.18;;
14603;SDS011;7388;51.078;13.740;2023-02-28T08:18:35;18.92;;;12.15;;
14603;SDS011;7388;51.078;13.740;2023-02-28T08:21:07;18.50;;;9.93;;
14603;SDS011;7388;51.078;13.740;2023-02-28T08:23:34;12.82;;;9.80;;
14603;SDS011;7388;51.078;13.740;2023-02-28T08:26:01;23.13;;;12.45;;
14603;SDS011;7388;51.078;13.740;2023-02-28T08:28:27;16.02;;;12.02;;
14603;SDS011;7388;51.078;13.740;2023-02-28T08:30:54;17.43;;;12.63;;
14603;SDS011;7388;51.078;13.740;2023-02-28T08:33:20;18.10;;;12.38;;
14603;SDS011;7388;51.078;13.740;2023-02-28T08:35:46;18.27;;;10.65;;
14603;SDS011;7388;51.078;13.740;2023-02-28T08:38:11;15.83;;;9.87;;
14603;SDS011;7388;51.078;13.740;2023-02-28T08:40:37;13.97;;;8.83;;
14603;SDS011;7388;51.078;13.740;2023-02-28T08:43:04;12.52;;;8.52;;
14603;SDS011;7388;51.078;13.740;2023-02-28T08:45:29;14.33;;;9.53;;
14603;SDS011;7388;51.078;13.740;2023-02-28T08:47:55;13.10;;;8.60;;
14603;SDS011;7388;51.078;13.740;2023-02-28T08:50:21;14.93;;;9.03;;
14603;SDS011;7388;51.078;13.740;2023-02-28T08:52:47;11.65;;;8.18;;
14603;SDS011;7388;51.078;13.740;2023-02-28T08:55:13;10.95;;;8.18;;
14603;SDS011;7388;51.078;13.740;2023-02-28T08:57:39;10.47;;;7.93;;
14603;SDS011;7388;51.078;13.740;2023-02-28T09:00:05;11.13;;;7.80;;
14603;SDS011;7388;51.078;13.740;2023-02-28T09:02:32;11.23;;;8.65;;
14603;SDS011;7388;51.078;13.740;2023-02-28T09:04:58;11.85;;;8.38;;
14603;SDS011;7388;51.078;13.740;2023-02-28T09:07:24;12.73;;;8.37;;
14603;SDS011;7388;51.078;13.740;2023-02-28T09:09:50;11.70;;;8.32;;
14603;SDS011;7388;51.078;13.740;2023-02-28T09:12:22;12.55;;;7.85;;
14603;SDS011;7388;51.078;13.740;2023-02-28T09:14:49;12.15;;;8.00;;
14603;SDS011;7388;51.078;13.740;2023-02-28T09:17:15;11.98;;;7.38;;
14603;SDS011;7388;51.078;13.740;2023-02-28T09:19:41;11.25;;;8.02;;
14603;SDS011;7388;51.078;13.740;2023-02-28T09:22:07;12.47;;;7.93;;
14603;SDS011;7388;51.078;13.740;2023-02-28T09:24:35;9.50;;;6.93;;
14603;SDS011;7388;51.078;13.740;2023-02-28T09:27:03;8.50;;;6.80;;
14603;SDS011;7388;51.078;13.740;2023-02-28T09:29:30;10.38;;;7.47;;
14603;SDS011;7388;51.078;13.740;2023-02-28T09:31:57;14.80;;;6.10;;
14603;SDS011;7388;51.078;13.740;2023-02-28T09:34:24;10.00;;;7.90;;
14603;SDS011;7388;51.078;13.740;2023-02-28T09:36:50;14.77;;;7.63;;
14603;SDS011;7388;51.078;13.740;2023-02-28T09:39:20;9.20;;;6.88;;
14603;SDS011;7388;51.078;13.740;2023-02-28T09:41:48;12.15;;;6.53;;
14603;SDS011;7388;51.078;13.740;2023-02-28T09:44:19;11.23;;;7.05;;
14603;SDS011;7388;51.078;13.740;2023-02-28T09:46:56;8.80;;;7.05;;
14603;SDS011;7388;51.078;13.740;2023-02-28T09:49:37;10.80;;;7.00;;
14603;SDS011;7388;51.078;13.740;2023-02-28T09:52:28;11.00;;;7.35;;
14603;SDS011;7388;51.078;13.740;2023-02-28T09:57:50;11.60;;;7.15;;
14603;SDS011;7388;51.078;13.740;2023-02-28T10:03:13;11.75;;;7.88;;
14603;SDS011;7388;51.078;13.740;2023-02-28T10:09:03;9.18;;;6.78;;
14603;SDS011;7388;51.078;13.740;2023-02-28T10:11:35;11.68;;;7.50;;
14603;SDS011;7388;51.078;13.740;2023-02-28T10:16:40;11.00;;;6.25;;
14603;SDS011;7388;51.078;13.740;2023-02-28T10:20:10;11.98;;;6.97;;
14603;SDS011;7388;51.078;13.740;2023-02-28T10:22:38;11.38;;;8.15;;
14603;SDS011;7388;51.078;13.740;2023-02-28T10:25:19;10.77;;;7.22;;
14603;SDS011;7388;51.078;13.740;2023-02-28T10:27:47;10.75;;;8.00;;
14603;SDS011;7388;51.078;13.740;2023-02-28T10:30:14;7.90;;;6.28;;
14603;SDS011;7388;51.078;13.740;2023-02-28T10:32:40;10.93;;;7.70;;
14603;SDS011;7388;51.078;13.740;2023-02-28T10:37:44;8.73;;;7.13;;
14603;SDS011;7388;51.078;13.740;2023-02-28T10:43:00;11.70;;;7.50;;
14603;SDS011;7388;51.078;13.740;2023-02-28T10:45:28;8.80;;;7.38;;
14603;SDS011;7388;51.078;13.740;2023-02-28T10:48:01;9.65;;;7.82;;
14603;SDS011;7388;51.078;13.740;2023-02-28T10:50:32;11.73;;;8.70;;
14603;SDS011;7388;51.078;13.740;2023-02-28T10:53:15;11.23;;;8.23;;
14603;SDS011;7388;51.078;13.740;2023-02-28T10:58:54;14.43;;;10.30;;
14603;SDS011;7388;51.078;13.740;2023-02-28T11:01:33;12.15;;;9.40;;
14603;SDS011;7388;51.078;13.740;2023-02-28T11:12:01;29.90;;;27.35;;
14603;SDS011;7388;51.078;13.740;2023-02-28T11:14:30;11.85;;;8.23;;
14603;SDS011;7388;51.078;13.740;2023-02-28T11:17:02;14.20;;;10.45;;
14603;SDS011;7388;51.078;13.740;2023-02-28T11:19:46;11.45;;;9.63;;
14603;SDS011;7388;51.078;13.740;2023-02-28T11:22:18;11.27;;;8.07;;
14603;SDS011;7388;51.078;13.740;2023-02-28T11:24:47;12.25;;;9.98;;
14603;SDS011;7388;51.078;13.740;2023-02-28T11:27:51;17.20;;;10.35;;
14603;SDS011;7388;51.078;13.740;2023-02-28T11:30:23;12.70;;;10.02;;
14603;SDS011;7388;51.078;13.740;2023-02-28T11:32:49;13.70;;;10.05;;
14603;SDS011;7388;51.078;13.740;2023-02-28T11:35:34;10.20;;;7.90;;
14603;SDS011;7388;51.078;13.740;2023-02-28T11:38:04;13.13;;;8.75;;
14603;SDS011;7388;51.078;13.740;2023-02-28T11:41:17;15.77;;;8.82;;
14603;SDS011;7388;51.078;13.740;2023-02-28T11:51:15;14.50;;;10.60;;
14603;SDS011;7388;51.078;13.740;2023-02-28T11:56:46;12.70;;;9.95;;
14603;SDS011;7388;51.078;13.740;2023-02-28T11:59:26;13.63;;;8.15;;
14603;SDS011;7388;51.078;13.740;2023-02-28T12:07:43;11.43;;;9.88;;
14603;SDS011;7388;51.078;13.740;2023-02-28T12:11:12;9.98;;;8.98;;
14603;SDS011;7388;51.078;13.740;2023-02-28T12:13:29;10.35;;;8.80;;
14603;SDS011;7388;51.078;13.740;2023-02-28T12:16:13;10.13;;;8.02;;
14603;SDS011;7388;51.078;13.740;2023-02-28T12:21:31;14.38;;;8.65;;
14603;SDS011;7388;51.078;13.740;2023-02-28T12:27:09;13.10;;;9.02;;
14603;SDS011;7388;51.078;13.740;2023-02-28T12:32:27;11.07;;;9.02;;
14603;SDS011;7388;51.078;13.740;2023-02-28T12:35:19;9.88;;;8.77;;
14603;SDS011;7388;51.078;13.740;2023-02-28T12:38:09;12.27;;;9.13;;
14603;SDS011;7388;51.078;13.740;2023-02-28T12:41:03;11.75;;;9.63;;
14603;SDS011;7388;51.078;13.740;2023-02-28T12:43:34;12.48;;;9.93;;
14603;SDS011;7388;51.078;13.740;2023-02-28T12:46:25;12.77;;;9.55;;
14603;SDS011;7388;51.078;13.740;2023-02-28T12:49:17;16.35;;;11.40;;
14603;SDS011;7388;51.078;13.740;2023-02-28T12:51:49;13.55;;;9.93;;
14603;SDS011;7388;51.078;13.740;2023-02-28T12:54:19;12.70;;;10.13;;
14603;SDS011;7388;51.078;13.740;2023-02-28T12:59:22;11.90;;;8.90;;
14603;SDS011;7388;51.078;13.740;2023-02-28T13:04:57;12.20;;;9.18;;
14603;SDS011;7388;51.078;13.740;2023-02-28T13:10:39;12.98;;;10.93;;
14603;SDS011;7388;51.078;13.740;2023-02-28T13:13:16;13.63;;;9.98;;
14603;SDS011;7388;51.078;13.740;2023-02-28T13:15:57;13.18;;;10.27;;
14603;SDS011;7388;51.078;13.740;2023-02-28T13:18:37;11.18;;;9.43;;
14603;SDS011;7388;51.078;13.740;2023-02-28T13:21:23;14.27;;;10.80;;
14603;SDS011;7388;51.078;13.740;2023-02-28T13:34:31;10.73;;;8.80;;
14603;SDS011;7388;51.078;13.740;2023-02-28T13:39:46;14.27;;;10.52;;
14603;SDS011;7388;51.078;13.740;2023-02-28T13:48:14;14.55;;;11.25;;
14603;SDS011;7388;51.078;13.740;2023-02-28T13:53:13;14.80;;;11.32;;
14603;SDS011;7388;51.078;13.740;2023-02-28T13:55:57;14.48;;;10.35;;
14603;SDS011;7388;51.078;13.740;2023-02-28T14:07:30;11.50;;;9.63;;
14603;SDS011;7388;51.078;13.740;2023-02-28T14:10:04;14.13;;;10.35;;
14603;SDS011;7388;51.078;13.740;2023-02-28T14:15:26;12.38;;;11.02;;
14603;SDS011;7388;51.078;13.740;2023-02-28T14:17:54;14.95;;;10.50;;
14603;SDS011;7388;51.078;13.740;2023-02-28T14:20:22;15.98;;;11.40;;
14603;SDS011;7388;51.078;13.740;2023-02-28T14:25:35;14.60;;;10.95;;
14603;SDS011;7388;51.078;13.740;2023-02-28T14:31:22;13.63;;;11.40;;
14603;SDS011;7388;51.078;13.740;2023-02-28T14:36:47;13.20;;;10.48;;
14603;SDS011;7388;51.078;13.740;2023-02-28T14:39:16;14.90;;;11.75;;
14603;SDS011;7388;51.078;13.740;2023-02-28T14:44:53;12.68;;;11.05;;
14603;SDS011;7388;51.078;13.740;2023-02-28T14:47:21;14.30;;;10.80;;
14603;SDS011;7388;51.078;13.740;2023-02-28T14:49:52;16.35;;;12.30;;
14603;SDS011;7388;51.078;13.740;2023-02-28T14:52:20;14.55;;;10.20;;
14603;SDS011;7388;51.078;13.740;2023-02-28T14:55:00;15.05;;;9.88;;
14603;SDS011;7388;51.078;13.740;2023-02-28T14:57:33;17.25;;;11.30;;
14603;SDS011;7388;51.078;13.740;2023-02-28T15:00:14;13.40;;;11.02;;
14603;SDS011;7388;51.078;13.740;2023-02-28T15:02:54;12.57;;;10.15;;
14603;SDS011;7388;51.078;13.740;2023-02-28T15:08:04;14.73;;;11.35;;
14603;SDS011;7388;51.078;13.740;2023-02-28T15:10:39;14.48;;;10.98;;
14603;SDS011;7388;51.078;13.740;2023-02-28T15:13:19;12.80;;;9.57;;
14603;SDS011;7388;51.078;13.740;2023-02-28T15:15:56;13.80;;;12.23;;
14603;SDS011;7388;51.078;13.740;2023-02-28T15:21:06;13.02;;;10.63;;
14603;SDS011;7388;51.078;13.740;2023-02-28T15:23:44;24.33;;;11.55;;
14603;SDS011;7388;51.078;13.740;2023-02-28T15:26:16;15.18;;;10.73;;
14603;SDS011;7388;51.078;13.740;2023-02-28T15:28:48;16.35;;;10.50;;
14603;SDS011;7388;51.078;13.740;2023-02-28T15:31:29;16.95;;;11.65;;
14603;SDS011;7388;51.078;13.740;2023-02-28T15:34:04;14.63;;;10.48;;
14603;SDS011;7388;51.078;13.740;2023-02-28T15:36:32;16.13;;;12.75;;
14603;SDS011;7388;51.078;13.740;2023-02-28T15:39:02;14.80;;;10.45;;
14603;SDS011;7388;51.078;13.740;2023-02-28T15:41:43;13.13;;;11.27;;
14603;SDS011;7388;51.078;13.740;2023-02-28T15:47:34;14.73;;;11.25;;
14603;SDS011;7388;51.078;13.740;2023-02-28T15:49:57;14.48;;;10.43;;
14603;SDS011;7388;51.078;13.740;2023-02-28T15:52:29;19.08;;;12.25;;
14603;SDS011;7388;51.078;13.740;2023-02-28T15:57:53;15.43;;;12.07;;
14603;SDS011;7388;51.078;13.740;2023-02-28T16:00:22;17.15;;;11.13;;
14603;SDS011;7388;51.078;13.740;2023-02-28T16:02:49;18.17;;;13.80;;
14603;SDS011;7388;51.078;13.740;2023-02-28T16:05:30;14.15;;;10.85;;
14603;SDS011;7388;51.078;13.740;2023-02-28T16:08:17;16.40;;;11.63;;
14603;SDS011;7388;51.078;13.740;2023-02-28T16:10:43;15.43;;;10.55;;
14603;SDS011;7388;51.078;13.740;2023-02-28T16:13:08;15.18;;;10.25;;
14603;SDS011;7388;51.078;13.740;2023-02-28T16:15:41;13.93;;;10.82;;
14603;SDS011;7388;51.078;13.740;2023-02-28T16:18:12;15.40;;;11.38;;
14603;SDS011;7388;51.078;13.740;2023-02-28T16:20:38;21.75;;;12.13;;
14603;SDS011;7388;51.078;13.740;2023-02-28T16:23:04;14.35;;;10.48;;
14603;SDS011;7388;51.078;13.740;2023-02-28T16:25:42;16.90;;;12.00;;
14603;SDS011;7388;51.078;13.740;2023-02-28T16:28:21;15.43;;;10.80;;
14603;SDS011;7388;51.078;13.740;2023-02-28T16:30:56;18.55;;;12.93;;
14603;SDS011;7388;51.078;13.740;2023-02-28T16:33:22;17.05;;;11.73;;
14603;SDS011;7388;51.078;13.740;2023-02-28T16:35:48;15.80;;;11.13;;
14603;SDS011;7388;51.078;13.740;2023-02-28T16:38:14;15.13;;;11.13;;
14603;SDS011;7388;51.078;13.740;2023-02-28T16:40:40;19.13;;;13.60;;
14603;SDS011;7388;51.078;13.740;2023-02-28T16:43:10;17.17;;;11.80;;
14603;SDS011;7388;51.078;13.740;2023-02-28T16:45:41;13.02;;;11.23;;
14603;SDS011;7388;51.078;13.740;2023-02-28T16:48:08;15.93;;;12.03;;
14603;SDS011;7388;51.078;13.740;2023-02-28T16:50:38;18.35;;;11.98;;
14603;SDS011;7388;51.078;13.740;2023-02-28T16:53:03;15.60;;;13.13;;
14603;SDS011;7388;51.078;13.740;2023-02-28T16:55:29;14.47;;;10.57;;
14603;SDS011;7388;51.078;13.740;2023-02-28T16:57:56;17.10;;;11.30;;
14603;SDS011;7388;51.078;13.740;2023-02-28T17:00:24;26.55;;;11.65;;
14603;SDS011;7388;51.078;13.740;2023-02-28T17:02:52;15.48;;;11.68;;
14603;SDS011;7388;51.078;13.740;2023-02-28T17:05:18;14.88;;;10.18;;
14603;SDS011;7388;51.078;13.740;2023-02-28T17:07:44;14.73;;;9.70;;
14603;SDS011;7388;51.078;13.740;2023-02-28T17:12:36;16.90;;;12.05;;
14603;SDS011;7388;51.078;13.740;2023-02-28T17:15:02;16.00;;;10.13;;
14603;SDS011;7388;51.078;13.740;2023-02-28T17:17:28;20.53;;;12.30;;
14603;SDS011;7388;51.078;13.740;2023-02-28T17:19:54;20.13;;;12.55;;
14603;SDS011;7388;51.078;13.740;2023-02-28T17:22:20;17.57;;;10.90;;
14603;SDS011;7388;51.078;13.740;2023-02-28T17:24:45;17.67;;;11.70;;
14603;SDS011;7388;51.078;13.740;2023-02-28T17:27:12;20.37;;;12.77;;
14603;SDS011;7388;51.078;13.740;2023-02-28T17:29:38;16.83;;;11.82;;
14603;SDS011;7388;51.078;13.740;2023-02-28T17:32:04;16.37;;;12.00;;
14603;SDS011;7388;51.078;13.740;2023-02-28T17:34:30;22.53;;;11.47;;
14603;SDS011;7388;51.078;13.740;2023-02-28T17:36:56;19.48;;;13.48;;
14603;SDS011;7388;51.078;13.740;2023-02-28T17:39:22;17.90;;;13.50;;